createdAt,value
2018-07-25T00:01:40.973Z,18.70
2018-07-25T00:04:10.100Z,18.70
2018-07-25T00:06:39.009Z,18.60
2018-07-25T00:09:08.960Z,18.60
2018-07-25T00:11:37.747Z,18.50
2018-07-25T00:14:06.928Z,18.50
2018-07-25T00:16:36.333Z,18.50
2018-07-25T00:19:05.494Z,18.50
2018-07-25T00:24:03.765Z,18.60
2018-07-25T00:26:35.207Z,18.60
2018-07-25T00:29:06.702Z,18.60
2018-07-25T00:31:35.603Z,18.50
2018-07-25T00:34:04.364Z,18.40
2018-07-25T00:36:51.161Z,18.40
2018-07-25T00:39:20.580Z,18.40
2018-07-25T00:41:49.527Z,18.20
2018-07-25T00:44:18.276Z,18.20
2018-07-25T00:46:47.003Z,18.20
2018-07-25T00:49:16.081Z,18.10
2018-07-25T00:51:46.156Z,18.00
2018-07-25T00:54:15.264Z,18.10
2018-07-25T00:56:46.295Z,18.00
2018-07-25T00:59:15.585Z,18.10
2018-07-25T01:01:44.512Z,18.00
2018-07-25T01:04:13.472Z,18.10
2018-07-25T01:06:42.464Z,18.10
2018-07-25T01:09:11.853Z,18.00
2018-07-25T01:11:42.484Z,18.00
2018-07-25T01:14:15.812Z,18.00
2018-07-25T01:16:46.299Z,17.90
2018-07-25T01:19:15.875Z,17.90
2018-07-25T01:21:44.962Z,17.80
2018-07-25T01:24:14.018Z,17.80
2018-07-25T01:26:42.789Z,17.80
2018-07-25T01:29:12.046Z,17.70
2018-07-25T01:31:40.767Z,17.70
2018-07-25T01:34:09.995Z,17.70
2018-07-25T01:36:38.928Z,17.70
2018-07-25T01:39:08.971Z,17.50
2018-07-25T01:41:39.383Z,17.50
2018-07-25T01:44:09.132Z,17.50
2018-07-25T01:46:38.598Z,17.50
2018-07-25T01:49:10.203Z,17.50
2018-07-25T01:51:41.307Z,17.40
2018-07-25T01:54:11.487Z,17.40
2018-07-25T01:56:41.386Z,17.40
2018-07-25T01:59:10.175Z,17.30
2018-07-25T02:01:51.835Z,17.20
2018-07-25T02:04:20.801Z,17.20
2018-07-25T02:06:49.803Z,17.20
2018-07-25T02:09:18.511Z,17.10
2018-07-25T02:11:47.687Z,17.20
2018-07-25T02:14:18.987Z,17.20
2018-07-25T02:16:49.776Z,17.10
2018-07-25T02:19:18.557Z,17.10
2018-07-25T02:21:47.690Z,17.00
2018-07-25T02:24:17.056Z,17.00
2018-07-25T02:26:45.788Z,16.90
2018-07-25T02:29:14.719Z,16.90
2018-07-25T02:31:46.015Z,16.90
2018-07-25T02:34:21.649Z,17.00
2018-07-25T02:36:52.358Z,16.90
2018-07-25T02:39:21.505Z,16.90
2018-07-25T02:41:50.541Z,17.00
2018-07-25T02:44:19.304Z,17.00
2018-07-25T02:46:48.263Z,17.00
2018-07-25T02:49:18.641Z,17.00
2018-07-25T02:51:48.722Z,17.00
2018-07-25T02:54:18.172Z,17.10
2018-07-25T02:56:47.420Z,17.00
2018-07-25T02:59:16.347Z,17.00
2018-07-25T03:01:45.118Z,17.00
2018-07-25T03:04:14.312Z,16.90
2018-07-25T03:09:11.765Z,16.80
2018-07-25T03:11:40.840Z,16.70
2018-07-25T03:14:10.020Z,16.70
2018-07-25T03:16:39.472Z,16.60
2018-07-25T03:19:09.065Z,16.70
2018-07-25T03:21:38.020Z,16.60
2018-07-25T03:24:06.740Z,16.70
2018-07-25T03:26:35.857Z,16.70
2018-07-25T03:29:04.863Z,16.80
2018-07-25T03:31:34.010Z,16.90
2018-07-25T03:34:05.599Z,16.90
2018-07-25T03:36:38.717Z,16.80
2018-07-25T03:39:10.116Z,16.80
2018-07-25T03:41:40.481Z,16.80
2018-07-25T03:44:10.062Z,16.70
2018-07-25T03:46:39.188Z,16.70
2018-07-25T03:49:08.009Z,16.70
2018-07-25T03:51:36.770Z,16.70
2018-07-25T03:54:09.394Z,16.50
2018-07-25T03:56:41.563Z,16.50
2018-07-25T03:59:12.177Z,16.50
2018-07-25T04:01:41.548Z,16.40
2018-07-25T04:04:10.492Z,16.40
2018-07-25T04:06:39.369Z,16.30
2018-07-25T04:09:09.612Z,16.30
2018-07-25T04:11:40.044Z,16.20
2018-07-25T04:14:13.340Z,16.30
2018-07-25T04:16:45.494Z,16.20
2018-07-25T04:19:15.299Z,16.20
2018-07-25T04:21:44.515Z,16.10
2018-07-25T04:24:13.501Z,16.20
2018-07-25T04:26:42.217Z,16.10
2018-07-25T04:29:12.073Z,16.20
2018-07-25T04:31:42.777Z,16.20
2018-07-25T04:34:13.567Z,16.20
2018-07-25T04:36:42.429Z,16.20
2018-07-25T04:39:12.237Z,16.20
2018-07-25T04:41:41.331Z,16.20
2018-07-25T04:44:11.029Z,16.20
2018-07-25T04:46:40.806Z,16.20
2018-07-25T04:49:12.041Z,16.30
2018-07-25T04:51:41.212Z,16.50
2018-07-25T04:54:10.099Z,16.70
2018-07-25T04:56:38.888Z,16.80
2018-07-25T04:59:08.504Z,16.80
2018-07-25T05:01:38.863Z,16.80
2018-07-25T05:04:07.843Z,16.80
2018-07-25T05:06:37.007Z,16.80
2018-07-25T05:09:08.240Z,16.90
2018-07-25T05:11:36.955Z,16.90
2018-07-25T05:14:05.867Z,17.00
2018-07-25T05:16:34.892Z,17.00
2018-07-25T05:19:04.337Z,17.10
2018-07-25T05:21:35.372Z,17.20
2018-07-25T05:24:04.584Z,17.20
2018-07-25T05:26:34.082Z,17.30
2018-07-25T05:29:03.008Z,17.30
2018-07-25T05:31:31.735Z,17.40
2018-07-25T05:34:01.183Z,17.50
2018-07-25T05:36:31.352Z,17.50
2018-07-25T05:39:01.916Z,17.60
2018-07-25T05:41:31.219Z,17.70
2018-07-25T05:44:00.404Z,17.80
2018-07-25T05:46:29.358Z,17.90
2018-07-25T05:48:58.402Z,17.90
2018-07-25T05:51:28.456Z,18.10
2018-07-25T05:53:59.755Z,18.30
2018-07-25T05:56:28.558Z,18.60
2018-07-25T05:58:57.844Z,18.70
2018-07-25T06:01:26.820Z,18.80
2018-07-25T06:03:56.189Z,18.80
2018-07-25T06:06:27.008Z,18.80
2018-07-25T06:08:58.068Z,18.70
2018-07-25T06:11:30.643Z,18.70
2018-07-25T06:14:03.463Z,18.70
2018-07-25T06:16:34.853Z,18.80
2018-07-25T06:19:03.693Z,18.80
2018-07-25T06:21:32.695Z,18.80
2018-07-25T06:24:01.763Z,18.90
2018-07-25T06:26:31.107Z,19.00
2018-07-25T06:28:59.966Z,19.00
2018-07-25T06:31:32.396Z,19.10
2018-07-25T06:34:01.965Z,19.30
2018-07-25T06:36:31.042Z,19.30
2018-07-25T06:39:00.120Z,19.30
2018-07-25T06:41:29.357Z,19.40
2018-07-25T06:43:58.113Z,19.60
2018-07-25T06:46:27.323Z,19.60
2018-07-25T06:48:58.073Z,19.70
2018-07-25T06:51:27.528Z,19.80
2018-07-25T06:53:56.367Z,19.80
2018-07-25T06:56:25.433Z,19.90
2018-07-25T06:58:54.607Z,20.00
2018-07-25T07:01:23.347Z,20.10
2018-07-25T07:03:56.194Z,20.40
2018-07-25T07:06:30.977Z,20.40
2018-07-25T07:09:01.797Z,20.40
2018-07-25T07:11:30.995Z,20.50
2018-07-25T07:13:59.988Z,20.60
2018-07-25T07:16:29.052Z,20.70
2018-07-25T07:18:57.890Z,20.60
2018-07-25T07:21:27.756Z,20.70
2018-07-25T07:24:01.587Z,20.80
2018-07-25T07:26:30.352Z,21.00
2018-07-25T07:28:59.156Z,20.90
2018-07-25T07:31:30.094Z,21.00
2018-07-25T07:34:05.497Z,21.10
2018-07-25T07:36:38.239Z,21.30
2018-07-25T07:39:10.298Z,21.20
2018-07-25T07:41:42.874Z,21.20
2018-07-25T07:44:14.062Z,21.40
2018-07-25T07:46:42.901Z,21.50
2018-07-25T07:49:11.684Z,21.60
2018-07-25T07:51:42.620Z,21.60
2018-07-25T07:54:11.523Z,21.70
2018-07-25T07:56:40.299Z,21.90
2018-07-25T07:59:09.321Z,21.90
2018-07-25T08:04:06.875Z,22.20
2018-07-25T08:06:36.056Z,22.30
2018-07-25T08:09:08.287Z,22.40
2018-07-25T08:11:37.351Z,22.60
2018-07-25T08:14:06.588Z,23.00
2018-07-25T08:16:35.696Z,23.10
2018-07-25T08:19:05.113Z,23.20
2018-07-25T08:21:34.357Z,23.00
2018-07-25T08:24:03.709Z,22.90
2018-07-25T08:26:32.884Z,22.90
2018-07-25T08:29:02.225Z,22.80
2018-07-25T08:31:36.344Z,22.90
2018-07-25T08:34:05.520Z,23.20
2018-07-25T08:36:34.344Z,23.30
2018-07-25T08:39:03.309Z,23.00
2018-07-25T08:41:32.392Z,23.30
2018-07-25T08:44:01.303Z,23.40
2018-07-25T08:46:30.050Z,23.20
2018-07-25T08:48:59.195Z,23.30
2018-07-25T08:51:28.333Z,23.30
2018-07-25T08:53:57.091Z,23.50
2018-07-25T08:56:26.393Z,23.80
2018-07-25T08:58:55.634Z,23.90
2018-07-25T09:01:26.424Z,23.90
2018-07-25T09:03:55.795Z,24.00
2018-07-25T09:06:25.034Z,24.10
2018-07-25T09:08:54.488Z,24.10
2018-07-25T09:11:33.176Z,24.10
2018-07-25T09:14:02.244Z,24.10
2018-07-25T09:16:31.665Z,24.10
2018-07-25T09:19:01.093Z,23.90
2018-07-25T09:21:37.292Z,23.90
2018-07-25T09:24:06.457Z,24.30
2018-07-25T09:26:35.783Z,24.30
2018-07-25T09:29:05.180Z,24.80
2018-07-25T09:31:35.000Z,25.20
2018-07-25T09:34:04.585Z,25.10
2018-07-25T09:36:33.717Z,25.30
2018-07-25T09:39:02.891Z,24.90
2018-07-25T09:41:31.996Z,25.00
2018-07-25T09:44:01.071Z,24.90
2018-07-25T09:46:33.828Z,24.70
2018-07-25T09:49:02.808Z,24.40
2018-07-25T09:51:31.985Z,24.30
2018-07-25T09:54:01.044Z,24.50
2018-07-25T09:56:29.994Z,24.80
2018-07-25T09:58:58.842Z,24.70
2018-07-25T10:01:27.780Z,24.70
2018-07-25T10:03:56.840Z,24.80
2018-07-25T10:06:26.113Z,24.90
2018-07-25T10:08:55.091Z,25.20
2018-07-25T10:11:24.140Z,25.00
2018-07-25T10:13:54.439Z,25.00
2018-07-25T10:16:23.869Z,24.90
2018-07-25T10:18:53.049Z,25.40
2018-07-25T10:21:22.111Z,25.10
2018-07-25T10:26:19.966Z,24.90
2018-07-25T10:28:49.742Z,25.10
2018-07-25T10:31:18.973Z,25.40
2018-07-25T10:33:48.264Z,25.30
2018-07-25T10:36:17.331Z,25.40
2018-07-25T10:38:46.279Z,25.60
2018-07-25T10:43:45.565Z,25.40
2018-07-25T10:46:14.769Z,25.40
2018-07-25T10:48:43.851Z,25.40
2018-07-25T10:51:14.713Z,25.50
2018-07-25T10:53:43.703Z,25.50
2018-07-25T10:56:12.463Z,25.20
2018-07-25T10:58:41.778Z,25.30
2018-07-25T11:01:11.174Z,25.40
2018-07-25T11:03:40.589Z,25.50
2018-07-25T11:06:09.669Z,25.60
2018-07-25T11:08:38.933Z,25.60
2018-07-25T11:11:10.060Z,25.50
2018-07-25T11:13:38.980Z,25.90
2018-07-25T11:18:36.325Z,26.30
2018-07-25T11:21:05.405Z,26.90
2018-07-25T11:23:34.687Z,27.10
2018-07-25T11:26:04.131Z,27.00
2018-07-25T11:28:33.979Z,27.20
2018-07-25T11:31:03.589Z,26.90
2018-07-25T11:33:32.586Z,27.10
2018-07-25T11:36:03.908Z,26.90
2018-07-25T11:38:33.282Z,27.10
2018-07-25T11:41:02.354Z,26.80
2018-07-25T11:43:31.781Z,26.90
2018-07-25T11:46:00.801Z,27.60
2018-07-25T11:48:30.176Z,27.80
2018-07-25T11:50:59.091Z,27.70
2018-07-25T11:53:28.311Z,27.50
2018-07-25T11:55:58.623Z,27.60
2018-07-25T11:58:27.975Z,27.50
2018-07-25T12:00:57.002Z,27.20
2018-07-25T12:03:26.036Z,27.30
2018-07-25T12:05:54.980Z,27.40
2018-07-25T12:10:52.532Z,27.50
2018-07-25T12:13:21.796Z,27.80
2018-07-25T12:15:50.730Z,27.60
2018-07-25T12:18:19.915Z,27.70
2018-07-25T12:20:49.085Z,27.40
2018-07-25T12:23:18.521Z,26.90
2018-07-25T12:25:47.809Z,26.80
2018-07-25T12:28:17.012Z,26.90
2018-07-25T12:30:45.863Z,27.10
2018-07-25T12:33:14.672Z,27.20
2018-07-25T12:35:43.447Z,27.00
2018-07-25T12:38:12.624Z,27.00
2018-07-25T12:40:41.928Z,26.90
2018-07-25T12:43:10.844Z,27.00
2018-07-25T12:45:39.945Z,26.90
2018-07-25T12:48:09.112Z,27.00
2018-07-25T12:53:06.439Z,27.20
2018-07-25T12:55:35.750Z,27.20
2018-07-25T12:58:04.851Z,27.10
2018-07-25T13:00:34.395Z,27.10
2018-07-25T13:05:32.474Z,26.90
2018-07-25T13:08:02.664Z,27.00
2018-07-25T13:10:31.707Z,27.00
2018-07-25T13:13:08.396Z,26.90
2018-07-25T13:15:37.847Z,27.10
2018-07-25T13:18:07.299Z,27.40
2018-07-25T13:20:36.723Z,27.60
2018-07-25T13:23:05.991Z,27.50
2018-07-25T13:25:35.080Z,27.60
2018-07-25T13:28:04.161Z,27.60
2018-07-25T13:30:33.463Z,27.40
2018-07-25T13:33:02.334Z,27.40
2018-07-25T13:35:31.143Z,27.30
2018-07-25T13:38:00.515Z,27.40
2018-07-25T13:40:29.676Z,27.60
2018-07-25T13:42:58.953Z,27.70
2018-07-25T13:45:28.274Z,27.90
2018-07-25T13:47:57.270Z,28.10
2018-07-25T13:50:26.547Z,28.30
2018-07-25T13:52:55.462Z,28.20
2018-07-25T13:55:24.676Z,28.20
2018-07-25T13:57:54.111Z,28.30
2018-07-25T14:00:22.890Z,28.30
2018-07-25T14:02:52.298Z,28.60
2018-07-25T14:05:21.581Z,29.00
2018-07-25T14:07:51.684Z,29.00
2018-07-25T14:10:20.859Z,29.00
2018-07-25T14:12:50.017Z,28.80
2018-07-25T14:15:19.400Z,28.80
2018-07-25T14:17:48.192Z,28.80
2018-07-25T14:20:16.991Z,28.70
2018-07-25T14:22:46.306Z,28.70
2018-07-25T14:25:15.574Z,28.80
2018-07-25T14:27:44.724Z,28.80
2018-07-25T14:30:13.885Z,28.90
2018-07-25T14:32:42.696Z,29.20
2018-07-25T14:35:11.956Z,29.30
2018-07-25T14:37:41.033Z,29.20
2018-07-25T14:40:09.995Z,29.20
2018-07-25T14:42:39.079Z,29.00
2018-07-25T14:45:08.133Z,29.10
2018-07-25T14:47:37.374Z,29.10
2018-07-25T14:50:07.740Z,29.10
2018-07-25T14:52:36.811Z,29.40
2018-07-25T14:55:06.062Z,29.20
2018-07-25T14:57:35.196Z,29.30
2018-07-25T15:00:04.525Z,29.10
2018-07-25T15:02:33.671Z,29.00
2018-07-25T15:05:02.665Z,28.80
2018-07-25T15:07:31.689Z,28.90
2018-07-25T15:10:00.953Z,29.00
2018-07-25T15:12:35.268Z,29.00
2018-07-25T15:15:04.908Z,29.10
2018-07-25T15:17:34.183Z,29.20
2018-07-25T15:20:03.370Z,29.30
2018-07-25T15:22:32.232Z,29.30
2018-07-25T15:25:01.225Z,29.30
2018-07-25T15:27:30.536Z,29.20
2018-07-25T15:29:59.720Z,29.10
2018-07-25T15:32:29.093Z,29.20
2018-07-25T15:34:58.207Z,29.20
2018-07-25T15:37:27.424Z,29.30
2018-07-25T15:39:56.352Z,29.40
2018-07-25T15:42:25.128Z,29.50
2018-07-25T15:44:56.096Z,29.30
2018-07-25T15:47:25.251Z,29.30
2018-07-25T15:49:54.131Z,29.10
2018-07-25T15:52:23.488Z,29.10
2018-07-25T15:54:52.619Z,29.30
2018-07-25T15:57:21.980Z,29.50
2018-07-25T15:59:51.211Z,29.70
2018-07-25T16:02:20.403Z,29.50
2018-07-25T16:04:49.934Z,29.40
2018-07-25T16:07:26.930Z,29.40
2018-07-25T16:09:56.032Z,29.50
2018-07-25T16:12:24.973Z,29.60
2018-07-25T16:14:54.022Z,29.70
2018-07-25T16:17:23.452Z,29.70
2018-07-25T16:19:52.592Z,29.60
2018-07-25T16:22:21.755Z,29.50
2018-07-25T16:24:50.596Z,29.60
2018-07-25T16:27:19.387Z,29.50
2018-07-25T16:29:48.234Z,29.60
2018-07-25T16:32:17.262Z,29.60
2018-07-25T16:34:46.072Z,29.60
2018-07-25T16:37:15.260Z,29.70
2018-07-25T16:39:44.238Z,29.60
2018-07-25T16:42:13.000Z,29.70
2018-07-25T16:44:42.264Z,29.70
2018-07-25T16:47:11.462Z,29.70
2018-07-25T16:49:40.250Z,29.50
2018-07-25T16:52:09.467Z,29.40
2018-07-25T16:54:38.524Z,29.40
2018-07-25T16:57:08.196Z,29.30
2018-07-25T16:59:37.588Z,29.30
2018-07-25T17:02:06.745Z,29.30
2018-07-25T17:04:36.149Z,29.30
2018-07-25T17:07:05.522Z,29.30
2018-07-25T17:09:34.295Z,29.20
2018-07-25T17:12:03.345Z,29.10
2018-07-25T17:14:32.765Z,29.30
2018-07-25T17:17:02.074Z,29.40
2018-07-25T17:19:30.865Z,29.40
2018-07-25T17:21:59.720Z,29.20
2018-07-25T17:24:28.867Z,29.00
2018-07-25T17:26:58.156Z,29.10
2018-07-25T17:29:26.956Z,29.20
2018-07-25T17:31:56.337Z,29.20
2018-07-25T17:34:25.347Z,29.20
2018-07-25T17:36:54.443Z,29.20
2018-07-25T17:39:23.467Z,29.30
2018-07-25T17:41:52.446Z,29.30
2018-07-25T17:44:22.220Z,29.30
2018-07-25T17:46:51.117Z,29.30
2018-07-25T17:49:19.880Z,29.20
2018-07-25T17:51:48.960Z,29.10
2018-07-25T17:56:47.238Z,29.10
2018-07-25T17:59:16.033Z,29.00
2018-07-25T18:01:44.817Z,28.90
2018-07-25T18:04:14.079Z,28.80
2018-07-25T18:06:42.984Z,28.70
2018-07-25T18:09:12.275Z,28.70
2018-07-25T18:11:42.985Z,28.50
2018-07-25T18:14:14.172Z,28.40
2018-07-25T18:16:44.605Z,28.30
2018-07-25T18:19:14.966Z,28.20
2018-07-25T18:21:44.315Z,28.10
2018-07-25T18:24:13.374Z,28.10
2018-07-25T18:26:42.544Z,28.10
2018-07-25T18:29:11.710Z,28.00
2018-07-25T18:31:40.908Z,27.90
2018-07-25T18:34:09.716Z,27.80
2018-07-25T18:36:39.497Z,27.80
2018-07-25T18:39:10.744Z,27.80
2018-07-25T18:41:40.497Z,27.70
2018-07-25T18:44:10.091Z,27.70
2018-07-25T18:46:38.927Z,27.60
2018-07-25T18:49:08.257Z,27.60
2018-07-25T18:51:37.573Z,27.50
2018-07-25T18:54:06.975Z,27.50
2018-07-25T18:56:36.340Z,27.40
2018-07-25T18:59:05.381Z,27.40
2018-07-25T19:01:34.593Z,27.40
2018-07-25T19:04:03.493Z,27.30
2018-07-25T19:06:32.560Z,27.20
2018-07-25T19:09:01.703Z,27.10
2018-07-25T19:11:31.033Z,27.10
2018-07-25T19:14:05.700Z,27.00
2018-07-25T19:16:35.027Z,26.90
2018-07-25T19:19:04.100Z,26.90
2018-07-25T19:21:33.139Z,26.80
2018-07-25T19:24:02.154Z,26.80
2018-07-25T19:26:31.340Z,26.70
2018-07-25T19:29:00.384Z,26.60
2018-07-25T19:31:29.447Z,26.60
2018-07-25T19:33:58.857Z,26.50
2018-07-25T19:36:27.981Z,26.40
2018-07-25T19:38:56.840Z,26.30
2018-07-25T19:41:25.914Z,26.20
2018-07-25T19:43:55.236Z,26.20
2018-07-25T19:46:24.054Z,26.10
2018-07-25T19:48:53.278Z,26.00
2018-07-25T19:51:22.296Z,26.00
2018-07-25T19:53:51.596Z,25.90
2018-07-25T19:56:20.831Z,25.90
2018-07-25T19:58:50.020Z,25.80
2018-07-25T20:01:19.244Z,25.70
2018-07-25T20:03:48.453Z,25.70
2018-07-25T20:06:17.487Z,25.50
2018-07-25T20:08:48.360Z,25.30
2018-07-25T20:11:17.160Z,25.20
2018-07-25T20:13:51.047Z,24.90
2018-07-25T20:16:19.839Z,24.70
2018-07-25T20:18:48.933Z,24.50
2018-07-25T20:21:18.093Z,24.30
2018-07-25T20:23:47.034Z,24.20
2018-07-25T20:26:16.148Z,24.10
2018-07-25T20:28:45.073Z,23.90
2018-07-25T20:31:14.051Z,23.70
2018-07-25T20:33:43.248Z,23.60
2018-07-25T20:36:12.540Z,23.50
2018-07-25T20:38:41.707Z,23.30
2018-07-25T20:41:10.794Z,23.30
2018-07-25T20:43:39.636Z,23.10
2018-07-25T20:46:08.460Z,23.20
2018-07-25T20:48:37.609Z,23.40
2018-07-25T20:51:06.656Z,23.40
2018-07-25T20:53:35.962Z,23.30
2018-07-25T20:58:33.684Z,22.90
2018-07-25T21:01:02.488Z,22.80
2018-07-25T21:03:31.285Z,22.70
2018-07-25T21:06:00.419Z,22.60
2018-07-25T21:08:29.211Z,22.50
2018-07-25T21:10:58.237Z,22.30
2018-07-25T21:13:27.500Z,22.50
2018-07-25T21:15:56.914Z,22.40
2018-07-25T21:18:25.770Z,22.30
2018-07-25T21:20:54.942Z,21.90
2018-07-25T21:23:24.204Z,22.10
2018-07-25T21:25:53.119Z,22.10
2018-07-25T21:28:21.936Z,22.00
2018-07-25T21:30:50.918Z,21.80
2018-07-25T21:35:48.479Z,21.70
2018-07-25T21:38:17.735Z,21.70
2018-07-25T21:40:46.862Z,21.80
2018-07-25T21:43:16.187Z,21.80
2018-07-25T21:45:48.693Z,21.80
2018-07-25T21:48:17.678Z,21.80
2018-07-25T21:50:47.629Z,21.60
2018-07-25T21:53:16.678Z,21.50
2018-07-25T21:55:45.827Z,21.40
2018-07-25T21:58:15.339Z,21.30
2018-07-25T22:00:49.487Z,21.20
2018-07-25T22:03:18.732Z,21.20
2018-07-25T22:05:47.480Z,21.10
2018-07-25T22:08:16.725Z,21.00
2018-07-25T22:10:45.803Z,20.90
2018-07-25T22:13:15.055Z,20.80
2018-07-25T22:15:44.031Z,20.80
2018-07-25T22:18:14.056Z,20.70
2018-07-25T22:20:43.133Z,20.70
2018-07-25T22:23:11.870Z,20.60
2018-07-25T22:25:40.972Z,20.60
2018-07-25T22:28:09.745Z,20.50
2018-07-25T22:30:38.897Z,20.50
2018-07-25T22:33:08.034Z,20.40
2018-07-25T22:35:37.094Z,20.40
2018-07-25T22:38:06.012Z,20.40
2018-07-25T22:40:35.829Z,20.40
2018-07-25T22:43:05.206Z,20.40
2018-07-25T22:45:34.144Z,20.30
2018-07-25T22:48:02.940Z,20.30
2018-07-25T22:50:31.971Z,20.20
2018-07-25T22:53:00.973Z,20.10
2018-07-25T22:55:35.079Z,20.20
2018-07-25T22:58:04.419Z,20.00
2018-07-25T23:00:36.875Z,20.20
2018-07-25T23:03:06.017Z,20.00
2018-07-25T23:05:34.921Z,20.10
2018-07-25T23:08:04.228Z,19.90
2018-07-25T23:10:33.303Z,19.80
2018-07-25T23:13:02.278Z,19.80
2018-07-25T23:15:31.494Z,19.70
2018-07-25T23:18:00.956Z,19.60
2018-07-25T23:20:30.664Z,19.50
2018-07-25T23:23:01.553Z,19.40
2018-07-25T23:25:30.570Z,19.40
2018-07-25T23:28:00.302Z,19.30
2018-07-25T23:30:30.149Z,19.30
2018-07-25T23:33:00.380Z,19.30
2018-07-25T23:35:29.161Z,19.30
2018-07-25T23:37:58.621Z,19.20
2018-07-25T23:40:27.754Z,19.10
2018-07-25T23:42:56.613Z,19.10
2018-07-25T23:45:25.811Z,19.10
2018-07-25T23:47:55.102Z,19.20
2018-07-25T23:50:32.686Z,19.10
2018-07-25T23:53:01.629Z,19.10
2018-07-25T23:55:32.380Z,19.00
2018-07-25T23:58:01.488Z,19.00
